Time;durP1;ratioP1;P1;durP2;ratioP2;P2;SDS_P1;SDS_P2;PMS_P1;PMS_P2;Temp;Humidity;BMP_temperature;BMP_pressure;BME280_temperature;BME280_humidity;BME280_pressure;Samples;Min_cycle;Max_cycle;Signal;HPM_P1;HPM_P2
2021/05/21 00:00:25;;;;;;;4.30;2.80;;;;;;;;;;5111776;28;20591;-83
2021/05/21 00:02:50;;;;;;;4.78;3.65;;;;;;;;;;5093474;28;20375;-85
2021/05/21 00:05:16;;;;;;;5.20;3.70;;;;;;;;;;5110941;28;20393;-85
2021/05/21 00:07:42;;;;;;;6.13;4.50;;;;;;;;;;5111114;28;20713;-87
2021/05/21 00:10:08;;;;;;;5.72;5.03;;;;;;;;;;5092700;28;20428;-87
2021/05/21 00:12:35;;;;;;;6.10;5.50;;;;;;;;;;5111166;28;20382;-86
2021/05/21 00:15:01;;;;;;;7.60;6.27;;;;;;;;;;5110874;28;20366;-86
2021/05/21 00:17:27;;;;;;;7.80;6.75;;;;;;;;;;5092723;28;20957;-83
2021/05/21 00:19:53;;;;;;;8.83;6.17;;;;;;;;;;5110896;28;20403;-86
2021/05/21 00:22:19;;;;;;;7.68;6.40;;;;;;;;;;5110614;28;20367;-85
2021/05/21 00:24:45;;;;;;;8.73;5.82;;;;;;;;;;5110947;28;20370;-80
2021/05/21 00:27:11;;;;;;;6.68;6.07;;;;;;;;;;5091774;28;20375;-83
2021/05/21 00:29:37;;;;;;;6.60;6.00;;;;;;;;;;5110889;28;20388;-85
2021/05/21 00:32:03;;;;;;;7.30;6.20;;;;;;;;;;5110338;28;20844;-83
2021/05/21 00:34:29;;;;;;;7.70;7.00;;;;;;;;;;5091946;28;20383;-83
2021/05/21 00:36:55;;;;;;;8.00;7.15;;;;;;;;;;5110167;28;20385;-80
2021/05/21 00:39:21;;;;;;;7.78;6.97;;;;;;;;;;5092067;28;20394;-89
2021/05/21 00:41:47;;;;;;;7.53;6.80;;;;;;;;;;5109670;28;20367;-85
2021/05/21 00:44:13;;;;;;;8.45;7.22;;;;;;;;;;5110161;28;20379;-81
2021/05/21 00:46:39;;;;;;;8.05;7.22;;;;;;;;;;5091317;28;20359;-81
2021/05/21 00:49:06;;;;;;;7.93;7.13;;;;;;;;;;5110242;28;20425;-80
2021/05/21 00:51:32;;;;;;;7.72;6.93;;;;;;;;;;5092021;28;20367;-83
2021/05/21 00:53:59;;;;;;;8.02;7.22;;;;;;;;;;5092338;28;20371;-83
2021/05/21 00:56:25;;;;;;;8.15;7.43;;;;;;;;;;5109562;28;20366;-88
2021/05/21 00:58:51;;;;;;;7.25;6.65;;;;;;;;;;5091612;28;20428;-86
2021/05/21 01:01:18;;;;;;;7.72;6.90;;;;;;;;;;5091658;28;20413;-86
2021/05/21 01:03:44;;;;;;;9.73;7.28;;;;;;;;;;5091747;28;20379;-80
2021/05/21 01:06:11;;;;;;;8.73;7.60;;;;;;;;;;5091472;28;20733;-80
2021/05/21 01:08:37;;;;;;;8.48;7.50;;;;;;;;;;5092885;28;20367;-83
2021/05/21 01:11:04;;;;;;;9.97;7.70;;;;;;;;;;5110859;28;20855;-84
2021/05/21 01:13:30;;;;;;;8.07;7.27;;;;;;;;;;5111074;28;20383;-86
2021/05/21 01:15:56;;;;;;;8.93;7.33;;;;;;;;;;5110465;28;20362;-85
2021/05/21 01:18:22;;;;;;;8.13;7.40;;;;;;;;;;5091853;28;20383;-84
2021/05/21 01:20:48;;;;;;;8.10;7.30;;;;;;;;;;5110688;28;20398;-84
2021/05/21 01:23:14;;;;;;;8.45;7.70;;;;;;;;;;5110101;28;20919;-84
2021/05/21 01:25:40;;;;;;;8.93;8.13;;;;;;;;;;5091668;28;20471;-84
2021/05/21 01:28:06;;;;;;;8.15;7.35;;;;;;;;;;5109926;28;20375;-84
2021/05/21 01:30:32;;;;;;;8.57;7.80;;;;;;;;;;5109984;28;20811;-85
2021/05/21 01:33:05;;;;;;;8.23;7.43;;;;;;;;;;5091471;28;20935;-84
2021/05/21 01:35:31;;;;;;;8.45;7.72;;;;;;;;;;5109204;28;20385;-85
2021/05/21 01:37:57;;;;;;;8.57;7.78;;;;;;;;;;5109823;28;20375;-83
2021/05/21 01:40:24;;;;;;;9.00;7.93;;;;;;;;;;5091051;28;20398;-86
2021/05/21 01:42:50;;;;;;;8.82;8.02;;;;;;;;;;5091415;28;20382;-87
2021/05/21 01:45:16;;;;;;;8.55;7.82;;;;;;;;;;5108949;28;20363;-84
2021/05/21 01:47:42;;;;;;;8.63;7.83;;;;;;;;;;5091066;28;20383;-82
2021/05/21 01:50:10;;;;;;;9.23;8.37;;;;;;;;;;5109742;28;21021;-86
2021/05/21 01:52:37;;;;;;;9.32;8.35;;;;;;;;;;5112613;28;20375;-83
2021/05/21 01:55:03;;;;;;;9.93;8.65;;;;;;;;;;5095211;28;20385;-83
2021/05/21 01:57:29;;;;;;;9.00;8.20;;;;;;;;;;5114195;28;20941;-85
2021/05/21 01:59:55;;;;;;;9.85;8.85;;;;;;;;;;5113355;28;20468;-85
2021/05/21 02:02:21;;;;;;;8.68;7.88;;;;;;;;;;5095463;28;20370;-82
2021/05/21 02:04:47;;;;;;;8.90;8.10;;;;;;;;;;5113575;28;20367;-81
2021/05/21 02:07:14;;;;;;;8.90;8.10;;;;;;;;;;5113113;28;20401;-90
2021/05/21 02:09:44;;;;;;;8.15;7.45;;;;;;;;;;5113552;28;20361;-84
2021/05/21 02:12:10;;;;;;;8.65;7.85;;;;;;;;;;5113457;28;20404;-86
2021/05/21 02:14:36;;;;;;;8.55;7.70;;;;;;;;;;5113150;28;20856;-86
2021/05/21 02:17:02;;;;;;;8.10;7.22;;;;;;;;;;5113091;28;20533;-86
2021/05/21 02:19:28;;;;;;;9.85;8.80;;;;;;;;;;5113191;28;20394;-86
2021/05/21 02:21:54;;;;;;;8.73;7.93;;;;;;;;;;5094829;28;20378;-89
2021/05/21 02:24:20;;;;;;;8.70;7.90;;;;;;;;;;5113161;28;20400;-85
2021/05/21 02:26:46;;;;;;;8.40;7.57;;;;;;;;;;5112993;28;20848;-83
2021/05/21 02:29:12;;;;;;;8.45;7.75;;;;;;;;;;5113120;28;20366;-82
2021/05/21 02:31:38;;;;;;;8.07;7.38;;;;;;;;;;5113095;28;20375;-81
2021/05/21 02:34:04;;;;;;;9.05;8.10;;;;;;;;;;5113120;28;20374;-79
2021/05/21 02:36:30;;;;;;;9.02;8.13;;;;;;;;;;5112446;28;20406;-87
2021/05/21 02:38:55;;;;;;;8.02;7.32;;;;;;;;;;5094374;28;20367;-83
2021/05/21 02:41:22;;;;;;;9.00;8.10;;;;;;;;;;5112648;28;20370;-83
2021/05/21 02:43:47;;;;;;;9.07;8.15;;;;;;;;;;5094278;28;20450;-88
2021/05/21 02:46:14;;;;;;;9.52;8.73;;;;;;;;;;5112048;28;20458;-86
2021/05/21 02:48:40;;;;;;;8.93;8.13;;;;;;;;;;5112621;28;20363;-82
2021/05/21 02:51:05;;;;;;;9.68;8.77;;;;;;;;;;5094432;28;20375;-89
2021/05/21 02:53:32;;;;;;;9.90;9.00;;;;;;;;;;5112822;28;20440;-86
2021/05/21 02:55:58;;;;;;;9.03;8.13;;;;;;;;;;5094308;28;20379;-86
2021/05/21 02:58:24;;;;;;;9.23;8.33;;;;;;;;;;5112810;28;20381;-80
2021/05/21 03:00:50;;;;;;;9.73;8.82;;;;;;;;;;5112335;28;20465;-86
2021/05/21 03:03:16;;;;;;;10.18;9.20;;;;;;;;;;5111358;28;20351;-84
2021/05/21 03:05:42;;;;;;;9.10;8.20;;;;;;;;;;5093827;28;20843;-83
2021/05/21 03:08:09;;;;;;;10.02;9.13;;;;;;;;;;5112332;28;20378;-86
2021/05/21 03:10:35;;;;;;;10.25;9.25;;;;;;;;;;5094375;28;20887;-87
2021/05/21 03:13:01;;;;;;;10.15;9.15;;;;;;;;;;5112595;28;20363;-82
2021/05/21 03:15:28;;;;;;;10.18;9.27;;;;;;;;;;5093673;28;21028;-83
2021/05/21 03:17:54;;;;;;;11.90;10.80;;;;;;;;;;5094050;28;20378;-83
2021/05/21 03:20:20;;;;;;;11.53;9.73;;;;;;;;;;5112114;28;20402;-85
2021/05/21 03:22:46;;;;;;;10.73;9.73;;;;;;;;;;5111930;28;20359;-83
2021/05/21 03:25:12;;;;;;;11.07;10.07;;;;;;;;;;5111544;28;20366;-82
2021/05/21 03:27:38;;;;;;;10.40;9.40;;;;;;;;;;5111786;28;20367;-84
2021/05/21 03:30:06;;;;;;;9.45;8.65;;;;;;;;;;5093821;28;20528;-86
2021/05/21 03:32:33;;;;;;;11.25;10.15;;;;;;;;;;5093956;28;20891;-79
2021/05/21 03:34:59;;;;;;;9.90;8.98;;;;;;;;;;5093505;28;20371;-85
2021/05/21 03:37:25;;;;;;;10.05;9.02;;;;;;;;;;5093429;28;20363;-85
2021/05/21 03:39:51;;;;;;;10.55;9.50;;;;;;;;;;5111590;28;20490;-83
2021/05/21 03:42:18;;;;;;;11.00;9.93;;;;;;;;;;5111767;28;20398;-82
2021/05/21 03:44:44;;;;;;;10.68;9.68;;;;;;;;;;5093416;28;20359;-82
2021/05/21 03:47:10;;;;;;;10.60;9.50;;;;;;;;;;5093169;28;20767;-85
2021/05/21 03:49:36;;;;;;;9.80;8.90;;;;;;;;;;5111383;28;20359;-81
2021/05/21 03:52:02;;;;;;;10.38;9.38;;;;;;;;;;5093550;28;20379;-87
2021/05/21 03:54:28;;;;;;;11.57;9.82;;;;;;;;;;5111551;28;20371;-83
2021/05/21 03:56:54;;;;;;;10.43;9.43;;;;;;;;;;5111271;28;20506;-84
2021/05/21 03:59:20;;;;;;;10.00;9.00;;;;;;;;;;5111195;28;20406;-86
2021/05/21 04:01:46;;;;;;;10.23;9.10;;;;;;;;;;5111210;28;20856;-84
2021/05/21 04:04:13;;;;;;;9.95;8.93;;;;;;;;;;5111197;28;20367;-85
2021/05/21 04:06:39;;;;;;;9.88;8.88;;;;;;;;;;5110832;28;20371;-84
2021/05/21 04:09:06;;;;;;;10.00;9.10;;;;;;;;;;5111009;28;20460;-87
2021/05/21 04:11:36;;;;;;;10.18;9.27;;;;;;;;;;5093041;28;20876;-84
2021/05/21 04:14:03;;;;;;;10.07;9.05;;;;;;;;;;5111102;28;20359;-84
2021/05/21 04:16:29;;;;;;;10.30;9.30;;;;;;;;;;5092323;28;20452;-83
2021/05/21 04:18:55;;;;;;;10.30;9.27;;;;;;;;;;5092675;28;20752;-84
2021/05/21 04:21:21;;;;;;;10.68;9.73;;;;;;;;;;5111131;28;20375;-82
2021/05/21 04:23:47;;;;;;;10.18;9.27;;;;;;;;;;5110918;28;20373;-86
2021/05/21 04:26:14;;;;;;;9.98;9.02;;;;;;;;;;5110273;28;20366;-84
2021/05/21 04:28:40;;;;;;;9.85;8.95;;;;;;;;;;5092722;28;20752;-83
2021/05/21 04:31:06;;;;;;;9.23;8.32;;;;;;;;;;5111060;28;20412;-86
2021/05/21 04:33:32;;;;;;;8.40;7.63;;;;;;;;;;5092578;28;21499;-83
2021/05/21 04:35:59;;;;;;;8.05;6.78;;;;;;;;;;5110456;28;20436;-88
2021/05/21 04:38:25;;;;;;;7.50;5.82;;;;;;;;;;5092442;28;20375;-87
2021/05/21 04:40:51;;;;;;;6.68;6.07;;;;;;;;;;5111517;28;20433;-79
2021/05/21 04:43:23;;;;;;;6.97;6.28;;;;;;;;;;5111326;28;20395;-82
2021/05/21 04:45:49;;;;;;;6.72;6.07;;;;;;;;;;5092077;28;20382;-83
2021/05/21 04:48:15;;;;;;;7.13;6.10;;;;;;;;;;5109833;28;20363;-85
2021/05/21 04:50:41;;;;;;;6.53;5.93;;;;;;;;;;5109860;28;20803;-82
2021/05/21 04:53:07;;;;;;;6.60;6.00;;;;;;;;;;5110958;28;20442;-84
2021/05/21 04:55:33;;;;;;;6.35;5.65;;;;;;;;;;5092184;28;20702;-85
2021/05/21 04:57:59;;;;;;;6.28;5.47;;;;;;;;;;5092159;28;20369;-85
2021/05/21 05:00:25;;;;;;;6.00;5.20;;;;;;;;;;5110083;28;20405;-84
2021/05/21 05:02:51;;;;;;;7.18;4.93;;;;;;;;;;5110258;28;20374;-83
2021/05/21 05:05:17;;;;;;;5.15;4.65;;;;;;;;;;5091595;28;20879;-84
2021/05/21 05:07:45;;;;;;;5.38;4.50;;;;;;;;;;5092034;28;20852;-84
2021/05/21 05:10:11;;;;;;;4.72;4.32;;;;;;;;;;5091599;28;20389;-82
2021/05/21 05:12:37;;;;;;;4.55;4.15;;;;;;;;;;5116327;27;20901;-83
2021/05/21 05:15:03;;;;;;;4.75;4.35;;;;;;;;;;5107696;27;20394;-84
2021/05/21 05:17:29;;;;;;;4.82;4.30;;;;;;;;;;5110718;28;20372;-83
2021/05/21 05:19:55;;;;;;;4.90;4.05;;;;;;;;;;5110911;28;20775;-84
2021/05/21 05:22:21;;;;;;;5.18;4.28;;;;;;;;;;5129078;27;20416;-81
2021/05/21 05:24:47;;;;;;;4.13;3.72;;;;;;;;;;5129553;27;20447;-83
2021/05/21 05:27:13;;;;;;;5.80;4.70;;;;;;;;;;5128403;27;20376;-83
2021/05/21 05:29:39;;;;;;;5.45;4.25;;;;;;;;;;5129425;27;20376;-83
2021/05/21 05:32:05;;;;;;;6.18;4.13;;;;;;;;;;5111131;28;20373;-85
2021/05/21 05:34:31;;;;;;;4.78;3.97;;;;;;;;;;5128970;27;20460;-81
2021/05/21 05:36:57;;;;;;;7.63;4.13;;;;;;;;;;5128675;27;20376;-86
2021/05/21 05:39:23;;;;;;;5.13;4.10;;;;;;;;;;5129357;28;20408;-85
2021/05/21 05:41:50;;;;;;;4.93;3.95;;;;;;;;;;5129249;28;20421;-83
2021/05/21 05:44:17;;;;;;;4.90;3.75;;;;;;;;;;5129530;28;20365;-81
2021/05/21 05:46:43;;;;;;;7.70;3.80;;;;;;;;;;5110992;28;20958;-86
2021/05/21 05:49:09;;;;;;;6.03;3.75;;;;;;;;;;5129367;28;21154;-81
2021/05/21 05:51:36;;;;;;;5.05;3.53;;;;;;;;;;5122909;28;20385;-80
2021/05/21 05:54:03;;;;;;;5.35;3.60;;;;;;;;;;5107616;28;20383;-83
2021/05/21 05:56:29;;;;;;;3.95;3.35;;;;;;;;;;5108207;28;20394;-82
2021/05/21 05:58:55;;;;;;;5.82;3.55;;;;;;;;;;5089897;28;20445;-83
2021/05/21 06:01:21;;;;;;;4.55;3.05;;;;;;;;;;5090109;28;20445;-83
2021/05/21 06:03:47;;;;;;;5.05;3.35;;;;;;;;;;5108285;28;20452;-85
2021/05/21 06:06:13;;;;;;;4.07;3.03;;;;;;;;;;5081704;28;20387;-82
2021/05/21 06:08:39;;;;;;;3.03;2.72;;;;;;;;;;5108670;28;20375;-84
2021/05/21 06:11:04;;;;;;;3.40;3.10;;;;;;;;;;5089981;28;20375;-86
2021/05/21 06:13:30;;;;;;;4.13;2.80;;;;;;;;;;5108505;28;20366;-82
2021/05/21 06:15:57;;;;;;;4.40;3.15;;;;;;;;;;5108787;28;20381;-81
2021/05/21 06:18:23;;;;;;;4.23;2.90;;;;;;;;;;5089885;28;20477;-85
2021/05/21 06:20:49;;;;;;;3.63;2.87;;;;;;;;;;5107784;28;20935;-81
2021/05/21 06:23:15;;;;;;;4.03;3.00;;;;;;;;;;5089916;28;20450;-82
2021/05/21 06:28:13;;;;;;;3.72;2.63;;;;;;;;;;5108707;28;20375;-87
2021/05/21 06:30:39;;;;;;;3.85;2.80;;;;;;;;;;5093913;28;20372;-87
2021/05/21 06:33:05;;;;;;;4.78;2.80;;;;;;;;;;5087359;28;20441;-84
2021/05/21 06:35:34;;;;;;;3.83;2.63;;;;;;;;;;5067738;28;20414;-82
2021/05/21 06:38:00;;;;;;;3.92;2.60;;;;;;;;;;5087364;28;20365;-84
2021/05/21 06:40:26;;;;;;;2.70;2.40;;;;;;;;;;5072171;28;20921;-87
2021/05/21 06:42:52;;;;;;;3.20;2.10;;;;;;;;;;5090596;28;20392;-84
2021/05/21 06:45:18;;;;;;;4.20;2.20;;;;;;;;;;5089989;28;20369;-83
2021/05/21 06:47:44;;;;;;;2.58;2.13;;;;;;;;;;5091339;28;20972;-82
2021/05/21 06:50:11;;;;;;;4.00;2.33;;;;;;;;;;5091613;28;20377;-85
2021/05/21 06:52:37;;;;;;;2.75;2.20;;;;;;;;;;5091498;28;20369;-81
2021/05/21 06:55:04;;;;;;;6.25;2.35;;;;;;;;;;5072864;28;20387;-86
2021/05/21 06:57:30;;;;;;;3.10;1.73;;;;;;;;;;5090996;28;20375;-82
2021/05/21 06:59:59;;;;;;;4.35;1.98;;;;;;;;;;5072825;28;20408;-84
2021/05/21 07:02:28;;;;;;;4.93;2.03;;;;;;;;;;5090870;28;21143;-82
2021/05/21 07:04:54;;;;;;;5.05;2.15;;;;;;;;;;5073086;28;20472;-84
2021/05/21 07:07:20;;;;;;;5.38;2.10;;;;;;;;;;5073026;28;20523;-87
2021/05/21 07:09:46;;;;;;;2.63;1.77;;;;;;;;;;5091009;28;20372;-82
2021/05/21 07:12:12;;;;;;;2.85;1.80;;;;;;;;;;5072325;28;20380;-83
2021/05/21 07:14:38;;;;;;;4.35;1.88;;;;;;;;;;5090808;28;20368;-86
2021/05/21 07:17:05;;;;;;;3.88;1.80;;;;;;;;;;5077172;28;20394;-81
2021/05/21 07:19:31;;;;;;;7.13;2.25;;;;;;;;;;5105472;28;20403;-83
2021/05/21 07:21:57;;;;;;;3.23;1.90;;;;;;;;;;5091897;28;20476;-83
2021/05/21 07:24:23;;;;;;;4.03;1.90;;;;;;;;;;5111179;28;20525;-85
2021/05/21 07:26:49;;;;;;;7.65;2.03;;;;;;;;;;5082635;27;20396;-85
2021/05/21 07:29:15;;;;;;;4.22;1.80;;;;;;;;;;5113123;27;20371;-87
2021/05/21 07:31:41;;;;;;;5.07;2.08;;;;;;;;;;5082105;28;20453;-84
2021/05/21 07:34:07;;;;;;;3.70;1.80;;;;;;;;;;5092268;28;20372;-82
2021/05/21 07:36:35;;;;;;;2.90;1.70;;;;;;;;;;5090748;28;20760;-86
2021/05/21 07:39:01;;;;;;;4.70;1.83;;;;;;;;;;5072651;28;20369;-84
2021/05/21 07:41:28;;;;;;;2.22;1.55;;;;;;;;;;5091233;28;20858;-86
2021/05/21 07:43:54;;;;;;;2.50;1.65;;;;;;;;;;5091091;28;20459;-85
2021/05/21 07:46:21;;;;;;;2.83;1.80;;;;;;;;;;5072791;28;20388;-84
2021/05/21 07:48:47;;;;;;;5.88;1.70;;;;;;;;;;5072857;28;20365;-83
2021/05/21 07:51:13;;;;;;;3.70;1.70;;;;;;;;;;5090365;28;20369;-87
2021/05/21 07:53:39;;;;;;;5.97;1.83;;;;;;;;;;5090631;28;20842;-83
2021/05/21 07:56:06;;;;;;;6.45;1.50;;;;;;;;;;5090599;28;20368;-82
2021/05/21 07:58:32;;;;;;;2.53;1.50;;;;;;;;;;5090186;28;20422;-87
2021/05/21 08:00:58;;;;;;;2.75;1.75;;;;;;;;;;5090733;28;20404;-83
2021/05/21 08:03:25;;;;;;;3.63;1.63;;;;;;;;;;5090657;28;20373;-81
2021/05/21 08:05:51;;;;;;;4.90;1.70;;;;;;;;;;5100715;28;20462;-84
2021/05/21 08:08:22;;;;;;;3.55;1.80;;;;;;;;;;5111312;28;20415;-86
2021/05/21 08:10:52;;;;;;;2.65;1.50;;;;;;;;;;5098872;28;20798;-83
2021/05/21 08:13:18;;;;;;;2.03;1.30;;;;;;;;;;5090232;28;20364;-85
2021/05/21 08:15:44;;;;;;;4.00;1.20;;;;;;;;;;5072555;28;20389;-83
2021/05/21 08:18:10;;;;;;;7.28;1.40;;;;;;;;;;5104592;27;20400;-87
2021/05/21 08:20:37;;;;;;;4.20;1.23;;;;;;;;;;5104548;28;20398;-83
2021/05/21 08:23:03;;;;;;;4.25;1.30;;;;;;;;;;5104632;27;20413;-85
2021/05/21 08:25:29;;;;;;;5.13;1.48;;;;;;;;;;5105555;28;20721;-81
2021/05/21 08:27:55;;;;;;;2.72;1.25;;;;;;;;;;5105660;28;20383;-85
2021/05/21 08:30:22;;;;;;;4.70;1.40;;;;;;;;;;5105708;28;20366;-85
2021/05/21 08:32:49;;;;;;;2.90;1.30;;;;;;;;;;5106358;28;20378;-85
2021/05/21 08:35:24;;;;;;;4.63;1.52;;;;;;;;;;5104658;28;20390;-82
2021/05/21 08:37:51;;;;;;;2.53;1.20;;;;;;;;;;5101868;27;20378;-81
2021/05/21 08:40:26;;;;;;;3.67;1.37;;;;;;;;;;5089154;27;20395;-83
2021/05/21 08:42:57;;;;;;;4.80;1.40;;;;;;;;;;5104463;27;20398;-85
2021/05/21 08:45:24;;;;;;;2.70;1.20;;;;;;;;;;5105356;27;20412;-85
2021/05/21 08:47:50;;;;;;;5.20;1.40;;;;;;;;;;5088169;28;20918;-88
2021/05/21 08:50:16;;;;;;;8.80;2.13;;;;;;;;;;5104659;28;20394;-83
2021/05/21 08:52:42;;;;;;;2.50;1.20;;;;;;;;;;5105604;28;20378;-87
2021/05/21 08:55:09;;;;;;;3.30;1.10;;;;;;;;;;5088551;28;20379;-80
2021/05/21 08:57:35;;;;;;;2.10;1.10;;;;;;;;;;5105227;28;20615;-86
2021/05/21 09:00:02;;;;;;;6.55;1.50;;;;;;;;;;5103775;28;20501;-80
2021/05/21 09:02:29;;;;;;;2.55;1.27;;;;;;;;;;5104213;28;20483;-88
2021/05/21 09:04:57;;;;;;;3.75;1.40;;;;;;;;;;5104673;28;20378;-85
2021/05/21 09:07:27;;;;;;;3.40;1.40;;;;;;;;;;5101556;27;20420;-86
2021/05/21 09:09:55;;;;;;;4.60;1.70;;;;;;;;;;5105945;28;20370;-83
2021/05/21 09:12:23;;;;;;;4.22;1.55;;;;;;;;;;5106082;28;20856;-86
2021/05/21 09:15:06;;;;;;;3.47;1.27;;;;;;;;;;5104354;28;20367;-81
2021/05/21 09:17:32;;;;;;;9.45;1.95;;;;;;;;;;5103892;28;20458;-82
2021/05/21 09:19:58;;;;;;;4.05;1.02;;;;;;;;;;5106323;28;20402;-82
2021/05/21 09:22:26;;;;;;;4.50;1.30;;;;;;;;;;5088983;28;20464;-85
2021/05/21 09:24:52;;;;;;;4.20;1.02;;;;;;;;;;5107401;28;20433;-82
2021/05/21 09:27:19;;;;;;;5.35;1.30;;;;;;;;;;5106495;28;20394;-80
2021/05/21 09:29:52;;;;;;;4.85;1.00;;;;;;;;;;5087053;28;20387;-83
2021/05/21 09:32:18;;;;;;;3.83;1.20;;;;;;;;;;5107021;28;21513;-78
2021/05/21 09:34:48;;;;;;;5.45;1.30;;;;;;;;;;5106148;28;20461;-80
2021/05/21 09:37:22;;;;;;;3.30;0.93;;;;;;;;;;5106349;28;20374;-81
2021/05/21 09:40:03;;;;;;;3.85;1.00;;;;;;;;;;5106534;28;20402;-84
2021/05/21 09:42:29;;;;;;;5.28;1.10;;;;;;;;;;5106663;28;20390;-83
2021/05/21 09:45:13;;;;;;;5.13;1.30;;;;;;;;;;5089418;28;20374;-79
2021/05/21 09:47:48;;;;;;;2.17;1.00;;;;;;;;;;5090505;28;20426;-81
2021/05/21 09:50:14;;;;;;;3.30;0.90;;;;;;;;;;5094068;28;20366;-84
2021/05/21 09:52:49;;;;;;;3.28;1.10;;;;;;;;;;5119578;28;20369;-86
2021/05/21 09:55:15;;;;;;;2.17;1.00;;;;;;;;;;5129344;27;20357;-86
2021/05/21 09:57:41;;;;;;;1.58;0.90;;;;;;;;;;5129379;28;20437;-81
2021/05/21 10:00:09;;;;;;;4.65;1.08;;;;;;;;;;5129259;28;20393;-82
2021/05/21 10:02:36;;;;;;;2.35;1.23;;;;;;;;;;5129459;27;20380;-84
2021/05/21 10:05:03;;;;;;;3.20;0.90;;;;;;;;;;5130408;28;20749;-83
2021/05/21 10:07:30;;;;;;;5.30;1.50;;;;;;;;;;5111152;28;20400;-85
2021/05/21 10:09:55;;;;;;;4.60;0.90;;;;;;;;;;5111531;28;20469;-85
2021/05/21 10:12:22;;;;;;;2.75;0.80;;;;;;;;;;5130264;27;20372;-81
2021/05/21 10:14:51;;;;;;;1.30;0.77;;;;;;;;;;5136192;27;20387;-85
2021/05/21 10:17:28;;;;;;;3.60;0.98;;;;;;;;;;5115403;27;20470;-83
2021/05/21 10:19:55;;;;;;;1.80;0.80;;;;;;;;;;5134787;27;20415;-80
2021/05/21 10:22:33;;;;;;;4.33;0.83;;;;;;;;;;5132456;27;20379;-86
2021/05/21 10:25:05;;;;;;;3.20;1.00;;;;;;;;;;5134394;27;20357;-83
2021/05/21 10:27:32;;;;;;;2.87;1.00;;;;;;;;;;5134204;27;20364;-79
2021/05/21 10:30:00;;;;;;;5.07;1.10;;;;;;;;;;5115991;27;20387;-83
2021/05/21 10:32:28;;;;;;;4.05;1.15;;;;;;;;;;5133811;27;20373;-81
2021/05/21 10:34:54;;;;;;;3.47;1.10;;;;;;;;;;5133108;27;20380;-81
2021/05/21 10:37:20;;;;;;;4.30;1.23;;;;;;;;;;5133826;27;20484;-82
2021/05/21 10:40:01;;;;;;;5.20;1.30;;;;;;;;;;5133186;27;20493;-81
2021/05/21 10:42:28;;;;;;;3.42;1.52;;;;;;;;;;5121226;27;20482;-83
2021/05/21 10:44:55;;;;;;;2.42;1.00;;;;;;;;;;5102347;28;20373;-88
2021/05/21 10:47:23;;;;;;;2.15;0.90;;;;;;;;;;5103561;28;20499;-86
2021/05/21 10:49:52;;;;;;;4.45;1.13;;;;;;;;;;5112581;28;20458;-86
2021/05/21 10:52:41;;;;;;;4.60;1.00;;;;;;;;;;5109959;28;20373;-83
2021/05/21 10:55:07;;;;;;;2.42;0.93;;;;;;;;;;5113253;28;20447;-83
2021/05/21 10:57:33;;;;;;;2.92;1.08;;;;;;;;;;5112795;28;20869;-82
2021/05/21 11:00:00;;;;;;;2.47;1.00;;;;;;;;;;5114863;28;20490;-83
2021/05/21 11:02:48;;;;;;;2.58;1.15;;;;;;;;;;5096114;28;20398;-82
2021/05/21 11:05:28;;;;;;;3.63;1.20;;;;;;;;;;5086138;28;20375;-84
2021/05/21 11:07:58;;;;;;;5.57;1.30;;;;;;;;;;5108678;28;20446;-82
2021/05/21 11:10:27;;;;;;;3.20;1.17;;;;;;;;;;5111392;28;20811;-83
2021/05/21 11:13:00;;;;;;;3.42;0.90;;;;;;;;;;5092719;28;20492;-83
2021/05/21 11:15:37;;;;;;;1.90;0.98;;;;;;;;;;5092887;28;20466;-79
2021/05/21 11:18:10;;;;;;;3.80;1.00;;;;;;;;;;5109011;28;20363;-80
2021/05/21 11:20:55;;;;;;;5.57;1.33;;;;;;;;;;5110752;28;20846;-81
2021/05/21 11:23:28;;;;;;;3.20;1.00;;;;;;;;;;5107675;28;20450;-81
2021/05/21 11:26:01;;;;;;;4.78;1.27;;;;;;;;;;5109039;28;20382;-83
2021/05/21 11:28:28;;;;;;;3.38;1.10;;;;;;;;;;5108120;28;20369;-85
2021/05/21 11:30:54;;;;;;;2.83;1.00;;;;;;;;;;5092121;28;20367;-84
2021/05/21 11:33:20;;;;;;;2.50;1.00;;;;;;;;;;5111373;28;20520;-84
2021/05/21 11:35:48;;;;;;;3.60;1.10;;;;;;;;;;5092275;28;21200;-84
2021/05/21 11:38:14;;;;;;;4.53;1.08;;;;;;;;;;5109840;28;20425;-81
2021/05/21 11:40:45;;;;;;;5.63;1.30;;;;;;;;;;5107227;28;20405;-85
2021/05/21 11:43:11;;;;;;;2.10;1.00;;;;;;;;;;5110531;28;20411;-82
2021/05/21 11:45:37;;;;;;;4.75;0.90;;;;;;;;;;5091723;28;20382;-83
2021/05/21 11:48:09;;;;;;;5.20;1.30;;;;;;;;;;5093222;28;20713;-80
2021/05/21 11:50:36;;;;;;;1.98;0.95;;;;;;;;;;5090743;28;20415;-81
2021/05/21 11:53:12;;;;;;;5.47;0.98;;;;;;;;;;5111466;28;20394;-79
2021/05/21 11:55:44;;;;;;;2.95;1.00;;;;;;;;;;5090676;28;20478;-82
2021/05/21 11:58:27;;;;;;;2.47;0.80;;;;;;;;;;5113591;28;20832;-81
2021/05/21 12:01:00;;;;;;;5.38;1.10;;;;;;;;;;5096788;28;20815;-81
2021/05/21 12:03:31;;;;;;;3.38;1.30;;;;;;;;;;5095221;28;20367;-82
2021/05/21 12:05:58;;;;;;;3.90;0.98;;;;;;;;;;5092834;28;20376;-81
2021/05/21 12:08:27;;;;;;;3.20;1.00;;;;;;;;;;5093021;28;20364;-80
2021/05/21 12:10:53;;;;;;;3.42;0.95;;;;;;;;;;5076442;28;20381;-82
2021/05/21 12:13:23;;;;;;;3.00;0.80;;;;;;;;;;5093633;28;20947;-80
2021/05/21 12:15:49;;;;;;;3.40;1.00;;;;;;;;;;5111029;28;20465;-79
2021/05/21 12:18:15;;;;;;;5.05;0.90;;;;;;;;;;5115354;28;20401;-85
2021/05/21 12:20:51;;;;;;;3.30;0.80;;;;;;;;;;5114628;28;20398;-82
2021/05/21 12:23:18;;;;;;;5.25;1.23;;;;;;;;;;5113948;28;20425;-79
2021/05/21 12:25:44;;;;;;;3.17;1.00;;;;;;;;;;5111402;28;20510;-80
2021/05/21 12:28:11;;;;;;;2.42;0.80;;;;;;;;;;5091908;28;20469;-82
2021/05/21 12:30:38;;;;;;;4.50;1.00;;;;;;;;;;5092028;28;20477;-82
2021/05/21 12:33:04;;;;;;;2.13;0.80;;;;;;;;;;5110108;28;20389;-81
2021/05/21 12:35:40;;;;;;;4.07;1.10;;;;;;;;;;5107956;28;20856;-82
2021/05/21 12:38:08;;;;;;;4.10;1.08;;;;;;;;;;5108987;28;20394;-83
2021/05/21 12:40:34;;;;;;;3.33;0.80;;;;;;;;;;5091173;28;20407;-81
2021/05/21 12:43:06;;;;;;;3.55;1.05;;;;;;;;;;5109259;28;20363;-83
2021/05/21 12:45:35;;;;;;;2.20;0.85;;;;;;;;;;5107940;28;20777;-83
2021/05/21 12:48:02;;;;;;;3.65;1.08;;;;;;;;;;5091326;27;20477;-81
2021/05/21 12:50:32;;;;;;;2.92;0.98;;;;;;;;;;5107635;27;20515;-85
2021/05/21 12:53:02;;;;;;;3.13;0.98;;;;;;;;;;5089391;28;20414;-83
2021/05/21 12:55:29;;;;;;;4.15;0.90;;;;;;;;;;5108678;27;20461;-87
2021/05/21 12:57:57;;;;;;;3.20;1.10;;;;;;;;;;5070601;28;20393;-81
2021/05/21 13:00:25;;;;;;;4.60;1.00;;;;;;;;;;5109238;27;20485;-83
2021/05/21 13:02:56;;;;;;;4.65;1.20;;;;;;;;;;5088272;28;20421;-82
2021/05/21 13:05:29;;;;;;;2.63;0.90;;;;;;;;;;5104249;28;20465;-84
2021/05/21 13:07:58;;;;;;;1.60;0.88;;;;;;;;;;5099204;28;20380;-84
2021/05/21 13:10:28;;;;;;;3.92;1.00;;;;;;;;;;5087628;28;20842;-83
2021/05/21 13:12:55;;;;;;;3.50;1.00;;;;;;;;;;5104607;28;20366;-83
2021/05/21 13:15:22;;;;;;;3.30;1.05;;;;;;;;;;5108267;28;20456;-82
2021/05/21 13:17:50;;;;;;;2.90;1.02;;;;;;;;;;5097077;27;20930;-84
2021/05/21 13:20:17;;;;;;;3.03;1.17;;;;;;;;;;5088936;28;20413;-83
2021/05/21 13:22:49;;;;;;;5.78;0.90;;;;;;;;;;5105836;27;20425;-87
2021/05/21 13:25:15;;;;;;;3.60;1.05;;;;;;;;;;5109145;27;20445;-82
2021/05/21 13:27:41;;;;;;;5.32;1.13;;;;;;;;;;5084528;28;20388;-83
2021/05/21 13:30:09;;;;;;;2.80;1.10;;;;;;;;;;5103705;28;20923;-85
2021/05/21 13:32:35;;;;;;;14.27;2.67;;;;;;;;;;5088796;28;20379;-83
2021/05/21 13:35:01;;;;;;;4.20;1.40;;;;;;;;;;5091349;28;20372;-87
2021/05/21 13:37:28;;;;;;;3.57;1.23;;;;;;;;;;5097001;28;20376;-81
2021/05/21 13:39:55;;;;;;;5.75;1.30;;;;;;;;;;5068808;28;20384;-84
2021/05/21 13:42:21;;;;;;;4.93;1.42;;;;;;;;;;5087440;28;20370;-82
2021/05/21 13:44:47;;;;;;;3.70;1.20;;;;;;;;;;5104550;28;20382;-82
2021/05/21 13:47:13;;;;;;;1.83;1.35;;;;;;;;;;5123555;27;20868;-79
2021/05/21 13:49:39;;;;;;;3.60;1.10;;;;;;;;;;5104956;28;20485;-87
2021/05/21 13:52:06;;;;;;;4.80;1.27;;;;;;;;;;5096633;27;20547;-81
2021/05/21 13:54:33;;;;;;;4.00;1.30;;;;;;;;;;5117809;27;20378;-88
2021/05/21 13:56:59;;;;;;;3.42;1.20;;;;;;;;;;5108921;27;20398;-87
2021/05/21 13:59:26;;;;;;;4.07;1.23;;;;;;;;;;5115251;27;20775;-82
2021/05/21 14:01:52;;;;;;;2.78;1.10;;;;;;;;;;5116516;27;20369;-83
2021/05/21 14:04:18;;;;;;;3.38;1.15;;;;;;;;;;5114371;27;20365;-82
2021/05/21 14:06:44;;;;;;;4.13;1.10;;;;;;;;;;5116942;27;20363;-83
2021/05/21 14:09:11;;;;;;;3.07;1.10;;;;;;;;;;5113864;27;20441;-86
2021/05/21 14:11:37;;;;;;;4.03;1.20;;;;;;;;;;5117127;27;20399;-82
2021/05/21 14:14:04;;;;;;;2.42;1.08;;;;;;;;;;5113347;27;20866;-82
2021/05/21 14:16:30;;;;;;;3.60;1.10;;;;;;;;;;5111962;27;20371;-80
2021/05/21 14:18:56;;;;;;;5.33;1.33;;;;;;;;;;5116861;27;20469;-83
2021/05/21 14:21:23;;;;;;;2.45;0.98;;;;;;;;;;5113984;27;20477;-83
2021/05/21 14:23:49;;;;;;;4.78;1.33;;;;;;;;;;5116469;27;21470;-83
2021/05/21 14:26:15;;;;;;;4.13;1.23;;;;;;;;;;5096048;27;20460;-81
2021/05/21 14:28:41;;;;;;;5.60;1.55;;;;;;;;;;5114208;27;20369;-82
2021/05/21 14:31:08;;;;;;;3.67;1.20;;;;;;;;;;5115734;27;21242;-83
2021/05/21 14:33:41;;;;;;;2.58;1.05;;;;;;;;;;5102198;27;20700;-83
2021/05/21 14:36:07;;;;;;;4.53;1.50;;;;;;;;;;5102792;27;20392;-83
2021/05/21 14:38:34;;;;;;;2.93;1.20;;;;;;;;;;5106307;27;20876;-83
2021/05/21 14:41:00;;;;;;;2.97;1.20;;;;;;;;;;5097044;27;20381;-83
2021/05/21 14:43:27;;;;;;;4.45;1.13;;;;;;;;;;5095667;27;20459;-85